Time;durP1;ratioP1;P1;durP2;ratioP2;P2;SDS_P1;SDS_P2;PMS_P1;PMS_P2;Temp;Humidity;BMP_temperature;BMP_pressure;BME280_temperature;BME280_humidity;BME280_pressure;Samples;Min_cycle;Max_cycle;Signal;HPM_P1;HPM_P2
2022/02/22 00:02:16;;;;;;;;;;;18.80;99.90;;;;;;5025171;28;20496;-57
2022/02/22 00:04:45;;;;;;;;;;;18.80;99.90;;;;;;5012254;28;20409;-57
2022/02/22 00:07:13;;;;;;;;;;;18.80;99.90;;;;;;5026172;28;19936;-58
2022/02/22 00:09:41;;;;;;;;;;;18.80;99.90;;;;;;5026227;28;19925;-58
2022/02/22 00:12:08;;;;;;;;;;;18.80;99.90;;;;;;5011883;28;19929;-55
2022/02/22 00:14:35;;;;;;;;;;;18.80;99.90;;;;;;5019442;28;19932;-59
2022/02/22 00:17:03;;;;;;;;;;;18.80;99.90;;;;;;5024053;28;20327;-57
2022/02/22 00:19:30;;;;;;;;;;;18.80;99.90;;;;;;5023496;28;19925;-60
2022/02/22 00:21:57;;;;;;;;;;;18.80;99.90;;;;;;5018154;28;19921;-60
2022/02/22 00:24:24;;;;;;;;;;;18.70;99.90;;;;;;5016390;28;19921;-58
2022/02/22 00:26:52;;;;;;;;;;;18.70;99.90;;;;;;5023150;28;19925;-57
2022/02/22 00:29:19;;;;;;;;;;;18.70;99.90;;;;;;5024856;28;19925;-57
2022/02/22 00:31:46;;;;;;;;;;;18.70;99.90;;;;;;5018722;28;20798;-56
2022/02/22 00:34:13;;;;;;;;;;;18.70;99.90;;;;;;5024542;28;19929;-55
2022/02/22 00:36:42;;;;;;;;;;;18.70;99.90;;;;;;5025746;28;19944;-55
2022/02/22 00:39:09;;;;;;;;;;;18.70;99.90;;;;;;5013531;28;19929;-57
2022/02/22 00:41:36;;;;;;;;;;;18.80;99.90;;;;;;4999364;28;19926;-59
2022/02/22 00:44:04;;;;;;;;;;;18.70;99.90;;;;;;5012221;28;19936;-61
2022/02/22 00:46:31;;;;;;;;;;;18.70;99.90;;;;;;5020641;28;20444;-60
2022/02/22 00:48:58;;;;;;;;;;;18.80;99.90;;;;;;5025810;28;19936;-57
2022/02/22 00:51:25;;;;;;;;;;;18.70;99.90;;;;;;5025110;28;19956;-56
2022/02/22 00:53:52;;;;;;;;;;;18.70;99.90;;;;;;5020278;28;19940;-57
2022/02/22 00:56:20;;;;;;;;;;;18.70;99.90;;;;;;5017109;28;20531;-56
2022/02/22 00:58:47;;;;;;;;;;;18.70;99.90;;;;;;5012814;28;19932;-58
2022/02/22 01:01:16;;;;;;;;;;;18.70;99.90;;;;;;5010327;28;20381;-54
2022/02/22 01:03:44;;;;;;;;;;;18.60;99.90;;;;;;5012073;28;19921;-58
2022/02/22 01:06:11;;;;;;;;;;;18.70;99.90;;;;;;5020333;28;19952;-58
2022/02/22 01:08:38;;;;;;;;;;;18.70;99.90;;;;;;5028758;28;19944;-57
2022/02/22 01:11:06;;;;;;;;;;;18.70;99.90;;;;;;5015014;28;19941;-60
2022/02/22 01:13:33;;;;;;;;;;;18.70;99.90;;;;;;5029868;28;19925;-59
2022/02/22 01:16:00;;;;;;;;;;;18.70;99.90;;;;;;5023291;28;19936;-57
2022/02/22 01:18:28;;;;;;;;;;;18.70;99.90;;;;;;5016070;28;20012;-55
2022/02/22 01:20:55;;;;;;;;;;;18.70;99.90;;;;;;5019875;28;19928;-58
2022/02/22 01:23:22;;;;;;;;;;;18.70;99.90;;;;;;5015806;28;19937;-57
2022/02/22 01:25:50;;;;;;;;;;;18.60;99.90;;;;;;5012740;28;19931;-55
2022/02/22 01:28:17;;;;;;;;;;;18.60;99.90;;;;;;5029463;28;19936;-60
2022/02/22 01:30:45;;;;;;;;;;;18.60;99.90;;;;;;5008085;28;19956;-55
2022/02/22 01:33:12;;;;;;;;;;;18.60;99.90;;;;;;5028629;28;19932;-59
2022/02/22 01:35:40;;;;;;;;;;;18.60;99.90;;;;;;5017969;28;19925;-58
2022/02/22 01:38:07;;;;;;;;;;;18.60;99.90;;;;;;5025713;28;19940;-57
2022/02/22 01:40:34;;;;;;;;;;;18.60;99.90;;;;;;4994042;28;20300;-56
2022/02/22 01:43:01;;;;;;;;;;;18.60;99.90;;;;;;5007192;28;19929;-59
2022/02/22 01:45:28;;;;;;;;;;;18.50;99.90;;;;;;5020078;28;19932;-57
2022/02/22 01:47:55;;;;;;;;;;;18.50;99.90;;;;;;5014748;28;19925;-58
2022/02/22 01:50:23;;;;;;;;;;;18.60;99.90;;;;;;5015104;28;19925;-59
2022/02/22 01:52:50;;;;;;;;;;;18.50;99.90;;;;;;5020759;28;19925;-57
2022/02/22 01:55:18;;;;;;;;;;;18.60;99.90;;;;;;5000202;28;19932;-58
2022/02/22 01:57:46;;;;;;;;;;;18.60;99.90;;;;;;5024512;28;19941;-57
2022/02/22 02:00:13;;;;;;;;;;;18.60;99.90;;;;;;5031847;28;19928;-58
2022/02/22 02:02:41;;;;;;;;;;;18.50;99.90;;;;;;5020522;28;19944;-54
2022/02/22 02:05:09;;;;;;;;;;;18.60;99.90;;;;;;5015487;28;19925;-55
2022/02/22 02:07:36;;;;;;;;;;;18.50;99.90;;;;;;5020608;28;19925;-61
2022/02/22 02:10:03;;;;;;;;;;;18.60;99.90;;;;;;5024501;28;19928;-59
2022/02/22 02:12:37;;;;;;;;;;;18.60;99.90;;;;;;5026342;28;19976;-62
2022/02/22 02:15:05;;;;;;;;;;;18.50;99.90;;;;;;5010805;28;19952;-57
2022/02/22 02:17:34;;;;;;;;;;;18.50;99.90;;;;;;5026242;28;19925;-61
2022/02/22 02:20:02;;;;;;;;;;;18.50;99.90;;;;;;5024384;28;19925;-57
2022/02/22 02:22:30;;;;;;;;;;;18.50;99.90;;;;;;5023985;28;20004;-57
2022/02/22 02:24:57;;;;;;;;;;;18.40;99.90;;;;;;5004228;28;19925;-59
2022/02/22 02:27:24;;;;;;;;;;;18.40;99.90;;;;;;5019635;28;20062;-59
2022/02/22 02:29:51;;;;;;;;;;;18.40;99.90;;;;;;5026148;28;19925;-58
2022/02/22 02:32:19;;;;;;;;;;;18.40;99.90;;;;;;5026230;28;19925;-57
2022/02/22 02:34:46;;;;;;;;;;;18.50;99.90;;;;;;5009398;28;19928;-57
2022/02/22 02:37:13;;;;;;;;;;;18.50;99.90;;;;;;5018221;28;19925;-57
2022/02/22 02:39:40;;;;;;;;;;;18.50;99.90;;;;;;5008750;28;19925;-56
2022/02/22 02:42:07;;;;;;;;;;;18.50;99.90;;;;;;5027693;28;19921;-56
2022/02/22 02:44:35;;;;;;;;;;;18.50;99.90;;;;;;5017528;28;19921;-57
2022/02/22 02:47:04;;;;;;;;;;;18.50;99.90;;;;;;5014478;28;20534;-59
2022/02/22 02:49:32;;;;;;;;;;;18.50;99.90;;;;;;5042439;28;19925;-56
2022/02/22 02:51:59;;;;;;;;;;;18.50;99.90;;;;;;5010844;28;19928;-58
2022/02/22 02:54:26;;;;;;;;;;;18.40;99.90;;;;;;5023988;28;19926;-58
2022/02/22 02:56:53;;;;;;;;;;;18.40;99.90;;;;;;5007022;28;19963;-57
2022/02/22 02:59:23;;;;;;;;;;;18.40;99.90;;;;;;5004881;28;20495;-59
2022/02/22 03:01:50;;;;;;;;;;;18.40;99.90;;;;;;5014330;28;19945;-54
2022/02/22 03:04:18;;;;;;;;;;;18.40;99.90;;;;;;5010075;28;19925;-60
2022/02/22 03:06:45;;;;;;;;;;;18.40;99.90;;;;;;5025704;28;19925;-59
2022/02/22 03:09:12;;;;;;;;;;;18.40;99.90;;;;;;5018999;28;19921;-58
2022/02/22 03:11:40;;;;;;;;;;;18.40;99.90;;;;;;5027041;28;19920;-58
2022/02/22 03:14:08;;;;;;;;;;;18.40;99.90;;;;;;5014537;28;19928;-57
2022/02/22 03:16:35;;;;;;;;;;;18.40;99.90;;;;;;5016402;28;19997;-56
2022/02/22 03:19:03;;;;;;;;;;;18.40;99.90;;;;;;5019651;28;20313;-61
2022/02/22 03:21:32;;;;;;;;;;;18.40;99.90;;;;;;5012387;28;19925;-61
2022/02/22 03:24:01;;;;;;;;;;;18.40;99.90;;;;;;5029702;28;20435;-58
2022/02/22 03:26:29;;;;;;;;;;;18.40;99.90;;;;;;5031372;28;19932;-61
2022/02/22 03:28:58;;;;;;;;;;;18.40;99.90;;;;;;5000386;28;19932;-59
2022/02/22 03:31:29;;;;;;;;;;;18.40;99.90;;;;;;5002868;28;19921;-57
2022/02/22 03:33:57;;;;;;;;;;;18.40;99.90;;;;;;5042065;28;19932;-56
2022/02/22 03:36:27;;;;;;;;;;;18.40;99.90;;;;;;5027615;28;19932;-58
2022/02/22 03:38:55;;;;;;;;;;;18.40;99.90;;;;;;5023334;28;19921;-55
2022/02/22 03:41:22;;;;;;;;;;;18.40;99.90;;;;;;5018604;28;20277;-58
2022/02/22 03:43:49;;;;;;;;;;;18.30;99.90;;;;;;5012630;28;19921;-55
2022/02/22 03:46:17;;;;;;;;;;;18.30;99.90;;;;;;5020046;28;19924;-58
2022/02/22 03:48:44;;;;;;;;;;;18.30;99.90;;;;;;5019296;28;20341;-57
2022/02/22 03:51:11;;;;;;;;;;;18.30;99.90;;;;;;5024019;28;19929;-60
2022/02/22 03:53:41;;;;;;;;;;;18.30;99.90;;;;;;5027665;28;20632;-57
2022/02/22 03:56:08;;;;;;;;;;;18.30;99.90;;;;;;5021688;28;19925;-57
2022/02/22 03:58:35;;;;;;;;;;;18.30;99.90;;;;;;5027823;28;19932;-58
2022/02/22 04:01:02;;;;;;;;;;;18.30;99.90;;;;;;5019846;28;19987;-54
2022/02/22 04:03:29;;;;;;;;;;;18.30;99.90;;;;;;5027732;28;19925;-59
2022/02/22 04:05:56;;;;;;;;;;;18.30;99.90;;;;;;5033250;28;19936;-58
2022/02/22 04:08:24;;;;;;;;;;;18.30;99.90;;;;;;5028632;28;19925;-59
2022/02/22 04:10:51;;;;;;;;;;;18.20;99.90;;;;;;5018981;28;20292;-59
2022/02/22 04:13:18;;;;;;;;;;;18.20;99.90;;;;;;5028689;28;19932;-56
2022/02/22 04:15:46;;;;;;;;;;;18.10;99.90;;;;;;5029009;28;19936;-59
2022/02/22 04:18:13;;;;;;;;;;;18.10;99.90;;;;;;5022598;28;19925;-60
2022/02/22 04:20:40;;;;;;;;;;;18.10;99.90;;;;;;5019241;28;20397;-54
2022/02/22 04:23:08;;;;;;;;;;;18.10;99.90;;;;;;5011965;28;19925;-55
2022/02/22 04:25:36;;;;;;;;;;;18.00;99.90;;;;;;5004524;28;20016;-56
2022/02/22 04:28:03;;;;;;;;;;;18.00;99.90;;;;;;5028831;28;20346;-59
2022/02/22 04:30:30;;;;;;;;;;;18.10;99.90;;;;;;5006943;28;19925;-57
2022/02/22 04:32:59;;;;;;;;;;;18.00;99.90;;;;;;5012889;28;19933;-58
2022/02/22 04:35:27;;;;;;;;;;;18.00;99.90;;;;;;5023638;28;19925;-58
2022/02/22 04:37:54;;;;;;;;;;;18.00;99.90;;;;;;5019757;28;19925;-61
2022/02/22 04:40:21;;;;;;;;;;;18.00;99.90;;;;;;5026184;28;19955;-58
2022/02/22 04:42:49;;;;;;;;;;;18.00;99.90;;;;;;5014905;28;19925;-61
2022/02/22 04:45:16;;;;;;;;;;;18.00;99.90;;;;;;5015010;28;20112;-60
2022/02/22 04:47:44;;;;;;;;;;;18.10;99.90;;;;;;5023310;28;19925;-56
2022/02/22 04:50:12;;;;;;;;;;;18.10;99.90;;;;;;5005549;28;19929;-57
2022/02/22 04:52:39;;;;;;;;;;;18.10;99.90;;;;;;5025748;28;19924;-58
2022/02/22 04:55:07;;;;;;;;;;;18.20;99.90;;;;;;5007148;28;19928;-62
2022/02/22 04:57:35;;;;;;;;;;;18.30;99.90;;;;;;5026555;28;19921;-55
2022/02/22 05:00:07;;;;;;;;;;;18.40;99.90;;;;;;5003089;28;19929;-56
2022/02/22 05:02:34;;;;;;;;;;;18.60;99.90;;;;;;5013162;28;19921;-56
2022/02/22 05:05:04;;;;;;;;;;;18.70;99.90;;;;;;5023034;28;20463;-61
2022/02/22 05:07:31;;;;;;;;;;;18.80;99.90;;;;;;5029668;28;19921;-58
2022/02/22 05:10:00;;;;;;;;;;;18.90;99.90;;;;;;5037794;28;19929;-58
2022/02/22 05:12:27;;;;;;;;;;;19.10;99.90;;;;;;5012168;28;19921;-55
2022/02/22 05:14:55;;;;;;;;;;;19.10;99.90;;;;;;5026463;28;19943;-58
2022/02/22 05:17:22;;;;;;;;;;;19.30;99.90;;;;;;5009775;28;19936;-59
2022/02/22 05:19:49;;;;;;;;;;;19.40;99.90;;;;;;5009096;28;19925;-56
2022/02/22 05:22:17;;;;;;;;;;;19.50;99.90;;;;;;5025938;28;19960;-61
2022/02/22 05:24:44;;;;;;;;;;;19.60;99.90;;;;;;5025105;28;19924;-56
2022/02/22 05:27:11;;;;;;;;;;;19.70;99.90;;;;;;5022087;28;19925;-58
2022/02/22 05:29:38;;;;;;;;;;;19.80;99.90;;;;;;5003322;28;19926;-58
2022/02/22 05:32:06;;;;;;;;;;;19.90;99.90;;;;;;5015994;28;19925;-61
2022/02/22 05:34:34;;;;;;;;;;;20.10;99.90;;;;;;5018400;28;19921;-61
2022/02/22 05:37:02;;;;;;;;;;;20.20;99.90;;;;;;5002855;28;19932;-62
2022/02/22 05:39:30;;;;;;;;;;;20.30;99.90;;;;;;5013899;28;19926;-60
2022/02/22 05:41:57;;;;;;;;;;;20.50;99.90;;;;;;5025869;28;20035;-58
2022/02/22 05:44:24;;;;;;;;;;;20.60;99.90;;;;;;5024087;28;19932;-61
2022/02/22 05:46:52;;;;;;;;;;;20.70;99.90;;;;;;5019976;28;20424;-60
2022/02/22 05:49:19;;;;;;;;;;;20.80;99.90;;;;;;5014710;28;19928;-57
2022/02/22 05:51:46;;;;;;;;;;;21.00;99.90;;;;;;5041842;28;19925;-54
2022/02/22 05:54:13;;;;;;;;;;;21.10;99.90;;;;;;5026525;28;19921;-59
2022/02/22 05:56:40;;;;;;;;;;;21.20;99.90;;;;;;5023688;28;20532;-54
2022/02/22 05:59:07;;;;;;;;;;;21.30;99.90;;;;;;5010685;28;19925;-58
2022/02/22 06:01:35;;;;;;;;;;;21.30;99.90;;;;;;5027909;28;19947;-56
2022/02/22 06:04:02;;;;;;;;;;;21.30;99.90;;;;;;5026892;28;19929;-57
2022/02/22 06:06:30;;;;;;;;;;;21.30;99.90;;;;;;5006067;28;20145;-57
2022/02/22 06:08:57;;;;;;;;;;;21.10;99.90;;;;;;5023510;28;19929;-60
2022/02/22 06:11:24;;;;;;;;;;;21.10;99.90;;;;;;5033663;28;19925;-60
2022/02/22 06:13:51;;;;;;;;;;;21.00;99.90;;;;;;5025727;28;19925;-58
2022/02/22 06:16:19;;;;;;;;;;;21.00;99.90;;;;;;5023346;28;20312;-56
2022/02/22 06:18:46;;;;;;;;;;;20.90;99.90;;;;;;5006080;28;19925;-60
2022/02/22 06:21:14;;;;;;;;;;;20.90;99.90;;;;;;5005814;28;20452;-58
2022/02/22 06:23:41;;;;;;;;;;;21.00;99.90;;;;;;5013235;28;19948;-63
2022/02/22 06:26:08;;;;;;;;;;;20.90;99.90;;;;;;5019011;28;19929;-58
2022/02/22 06:28:35;;;;;;;;;;;20.90;99.90;;;;;;5020379;28;20392;-57
2022/02/22 06:31:02;;;;;;;;;;;21.00;99.90;;;;;;5026063;28;20158;-58
2022/02/22 06:33:31;;;;;;;;;;;20.90;99.90;;;;;;5016212;28;20312;-63
2022/02/22 06:35:58;;;;;;;;;;;20.90;99.90;;;;;;5027278;28;20387;-58
2022/02/22 06:38:26;;;;;;;;;;;20.90;99.90;;;;;;5030414;28;20054;-61
2022/02/22 06:40:53;;;;;;;;;;;20.90;99.90;;;;;;5033702;28;19940;-59
2022/02/22 06:43:20;;;;;;;;;;;20.90;99.90;;;;;;5019509;28;19929;-58
2022/02/22 06:45:48;;;;;;;;;;;20.80;99.90;;;;;;5009336;28;19925;-64
2022/02/22 06:48:15;;;;;;;;;;;20.80;99.90;;;;;;5010333;28;19921;-61
2022/02/22 06:50:43;;;;;;;;;;;20.70;99.90;;;;;;5030055;28;19925;-59
2022/02/22 06:53:11;;;;;;;;;;;20.70;99.90;;;;;;5027452;28;19932;-60
2022/02/22 06:55:39;;;;;;;;;;;20.70;99.90;;;;;;5023027;28;19926;-61
2022/02/22 06:58:08;;;;;;;;;;;20.60;99.90;;;;;;5026172;28;20647;-64
2022/02/22 07:00:36;;;;;;;;;;;20.60;99.90;;;;;;5026358;28;19925;-66
2022/02/22 07:03:04;;;;;;;;;;;20.60;99.90;;;;;;5018257;28;19929;-65
2022/02/22 07:05:34;;;;;;;;;;;20.60;99.90;;;;;;4986871;28;19925;-62
2022/02/22 07:08:05;;;;;;;;;;;20.60;99.90;;;;;;5017631;28;19925;-64
2022/02/22 07:10:34;;;;;;;;;;;20.50;99.90;;;;;;5024591;28;19929;-62
2022/02/22 07:13:01;;;;;;;;;;;20.40;99.90;;;;;;5002261;28;20636;-61
2022/02/22 07:15:28;;;;;;;;;;;20.30;99.90;;;;;;5020418;28;19921;-62
2022/02/22 07:18:02;;;;;;;;;;;20.30;99.90;;;;;;5018108;28;19925;-61
2022/02/22 07:20:30;;;;;;;;;;;20.30;99.90;;;;;;5021538;28;19929;-58
2022/02/22 07:22:57;;;;;;;;;;;20.40;99.90;;;;;;5022237;28;19925;-61
2022/02/22 07:25:26;;;;;;;;;;;20.40;99.90;;;;;;5021527;28;20292;-63
2022/02/22 07:27:57;;;;;;;;;;;20.50;99.90;;;;;;5022658;28;19929;-59
2022/02/22 07:30:25;;;;;;;;;;;20.60;99.90;;;;;;5024598;28;19921;-59
2022/02/22 07:32:57;;;;;;;;;;;20.70;99.90;;;;;;5027569;28;19921;-61
2022/02/22 07:35:24;;;;;;;;;;;20.80;99.90;;;;;;5025169;28;20357;-57
2022/02/22 07:37:52;;;;;;;;;;;20.90;99.90;;;;;;5003682;28;20210;-59
2022/02/22 07:40:21;;;;;;;;;;;21.00;99.90;;;;;;5022267;28;20380;-61
2022/02/22 07:42:53;;;;;;;;;;;21.10;99.90;;;;;;5021732;28;19936;-57
2022/02/22 07:45:20;;;;;;;;;;;21.20;99.90;;;;;;5022977;28;19936;-57
2022/02/22 07:47:47;;;;;;;;;;;21.30;99.90;;;;;;5001168;28;19929;-57
2022/02/22 07:50:15;;;;;;;;;;;21.30;99.90;;;;;;5021117;28;19947;-59
2022/02/22 07:52:45;;;;;;;;;;;21.30;99.90;;;;;;5020861;28;20592;-58
2022/02/22 07:55:12;;;;;;;;;;;21.40;99.90;;;;;;5020300;28;19925;-59
2022/02/22 07:57:40;;;;;;;;;;;21.30;99.90;;;;;;5021178;28;20300;-58
2022/02/22 08:00:08;;;;;;;;;;;21.30;99.90;;;;;;5005334;28;20388;-58
2022/02/22 08:02:36;;;;;;;;;;;21.30;99.90;;;;;;5004013;28;19925;-64
2022/02/22 08:05:03;;;;;;;;;;;21.20;99.90;;;;;;5002389;28;19928;-60
2022/02/22 08:07:34;;;;;;;;;;;21.20;99.90;;;;;;5014956;28;20295;-61
2022/02/22 08:10:06;;;;;;;;;;;21.20;99.90;;;;;;5020740;28;19929;-60
2022/02/22 08:12:34;;;;;;;;;;;21.10;99.90;;;;;;5020661;28;19932;-61
2022/02/22 08:15:01;;;;;;;;;;;21.10;99.90;;;;;;5020375;28;20024;-61
2022/02/22 08:17:28;;;;;;;;;;;21.10;99.90;;;;;;5019202;28;19929;-58
2022/02/22 08:19:55;;;;;;;;;;;21.10;99.90;;;;;;5018665;28;19925;-57
2022/02/22 08:22:23;;;;;;;;;;;21.10;99.90;;;;;;5020968;28;20408;-58
2022/02/22 08:24:53;;;;;;;;;;;21.00;99.90;;;;;;5019814;28;20012;-61
2022/02/22 08:27:20;;;;;;;;;;;21.00;99.90;;;;;;5018761;28;19929;-58
2022/02/22 08:29:48;;;;;;;;;;;21.00;99.90;;;;;;5018955;28;19925;-63
2022/02/22 08:32:15;;;;;;;;;;;20.90;99.90;;;;;;5004599;28;19928;-60
2022/02/22 08:34:43;;;;;;;;;;;20.90;99.90;;;;;;5017387;28;19939;-60
2022/02/22 08:37:16;;;;;;;;;;;20.90;99.90;;;;;;5019438;28;19921;-57
2022/02/22 08:39:45;;;;;;;;;;;20.90;99.90;;;;;;5017449;28;19925;-61
2022/02/22 08:42:12;;;;;;;;;;;20.80;99.90;;;;;;5004744;28;19959;-60
2022/02/22 08:44:40;;;;;;;;;;;20.80;99.90;;;;;;5027576;28;20384;-62
2022/02/22 08:47:07;;;;;;;;;;;20.80;99.90;;;;;;5022282;28;19929;-63
2022/02/22 08:49:36;;;;;;;;;;;20.70;99.90;;;;;;5021285;28;19925;-59
2022/02/22 08:52:04;;;;;;;;;;;20.70;99.90;;;;;;5022940;28;19929;-60
2022/02/22 08:54:48;;;;;;;;;;;20.70;99.90;;;;;;5021536;28;20432;-63
2022/02/22 08:57:18;;;;;;;;;;;20.70;99.90;;;;;;5005846;28;19929;-63
2022/02/22 08:59:45;;;;;;;;;;;20.70;99.90;;;;;;5005299;28;19932;-60
2022/02/22 09:02:13;;;;;;;;;;;20.80;99.90;;;;;;5004324;28;19921;-62
2022/02/22 09:04:40;;;;;;;;;;;20.90;99.90;;;;;;5000396;28;20203;-62
2022/02/22 09:07:08;;;;;;;;;;;21.00;99.90;;;;;;5021884;28;19932;-63
2022/02/22 09:09:35;;;;;;;;;;;21.00;99.90;;;;;;4998465;28;19945;-68
2022/02/22 09:12:05;;;;;;;;;;;21.10;99.90;;;;;;5021531;28;19925;-64
2022/02/22 09:14:32;;;;;;;;;;;21.20;99.90;;;;;;5021838;28;19972;-65
2022/02/22 09:17:00;;;;;;;;;;;21.30;99.90;;;;;;5021460;28;19932;-67
2022/02/22 09:19:27;;;;;;;;;;;21.40;99.90;;;;;;4997924;28;20453;-63
2022/02/22 09:21:55;;;;;;;;;;;21.40;99.90;;;;;;5019116;28;19921;-59
2022/02/22 09:24:22;;;;;;;;;;;21.40;99.90;;;;;;5019459;28;19925;-62
2022/02/22 09:26:49;;;;;;;;;;;21.50;99.90;;;;;;5001706;28;20344;-62
2022/02/22 09:29:17;;;;;;;;;;;21.50;99.90;;;;;;5017850;28;19932;-60
2022/02/22 09:31:48;;;;;;;;;;;21.40;99.90;;;;;;5019384;28;20012;-59
2022/02/22 09:34:16;;;;;;;;;;;21.40;99.90;;;;;;5001087;28;19929;-64
2022/02/22 09:36:44;;;;;;;;;;;21.40;99.90;;;;;;5017292;28;20063;-60
2022/02/22 09:39:11;;;;;;;;;;;21.30;99.90;;;;;;4998763;28;20212;-61
2022/02/22 09:41:39;;;;;;;;;;;21.30;99.90;;;;;;5033543;28;19928;-61
2022/02/22 09:44:06;;;;;;;;;;;21.30;99.90;;;;;;5015907;28;20676;-66
2022/02/22 09:46:35;;;;;;;;;;;21.30;99.90;;;;;;5021613;28;19929;-63
2022/02/22 09:49:02;;;;;;;;;;;21.30;99.90;;;;;;5018612;28;19929;-68
2022/02/22 09:51:30;;;;;;;;;;;21.20;99.90;;;;;;5018918;28;19925;-63
2022/02/22 09:53:57;;;;;;;;;;;21.20;99.90;;;;;;5020348;28;19929;-67
2022/02/22 09:56:25;;;;;;;;;;;21.20;99.90;;;;;;5018474;28;20211;-66
2022/02/22 09:58:52;;;;;;;;;;;21.20;99.90;;;;;;5018019;28;19937;-64
2022/02/22 10:01:24;;;;;;;;;;;21.10;99.90;;;;;;5020563;28;19924;-62
2022/02/22 10:03:57;;;;;;;;;;;21.10;99.90;;;;;;5045967;28;20371;-64
2022/02/22 10:06:26;;;;;;;;;;;21.10;99.90;;;;;;5034433;28;19925;-69
2022/02/22 10:08:54;;;;;;;;;;;21.10;99.90;;;;;;5017884;28;19925;-67
2022/02/22 10:11:22;;;;;;;;;;;21.10;99.90;;;;;;5034639;28;19925;-66
2022/02/22 10:13:49;;;;;;;;;;;21.10;99.90;;;;;;5024129;28;19929;-64
2022/02/22 10:16:19;;;;;;;;;;;21.00;99.90;;;;;;5002685;28;20362;-61
2022/02/22 10:19:07;;;;;;;;;;;21.00;99.90;;;;;;5015755;28;19936;-57
2022/02/22 10:21:46;;;;;;;;;;;21.00;99.90;;;;;;5021899;28;20373;-60
2022/02/22 10:24:17;;;;;;;;;;;21.00;99.90;;;;;;5007098;28;19921;-60
2022/02/22 10:26:45;;;;;;;;;;;20.90;99.90;;;;;;5004317;28;19940;-64
2022/02/22 10:29:17;;;;;;;;;;;20.90;99.90;;;;;;5018390;28;19932;-62
2022/02/22 10:31:47;;;;;;;;;;;20.90;99.90;;;;;;5025368;28;19925;-63
2022/02/22 10:34:14;;;;;;;;;;;20.80;99.90;;;;;;5019778;28;19925;-68
2022/02/22 10:36:50;;;;;;;;;;;20.80;99.90;;;;;;5021692;28;20001;-62
2022/02/22 10:39:19;;;;;;;;;;;20.80;99.90;;;;;;5019681;28;20911;-61
2022/02/22 10:41:48;;;;;;;;;;;20.90;99.90;;;;;;5004101;28;19925;-63
2022/02/22 10:44:42;;;;;;;;;;;20.90;99.90;;;;;;5024199;28;19932;-64
2022/02/22 10:47:20;;;;;;;;;;;21.00;99.90;;;;;;5002826;28;19925;-59
2022/02/22 10:49:48;;;;;;;;;;;21.20;99.90;;;;;;5022119;28;19929;-61
2022/02/22 10:52:17;;;;;;;;;;;21.30;99.90;;;;;;5021774;28;20467;-65
2022/02/22 10:54:44;;;;;;;;;;;21.40;99.90;;;;;;5023717;28;19929;-62
2022/02/22 10:57:12;;;;;;;;;;;21.50;99.90;;;;;;5018562;28;19960;-63
2022/02/22 10:59:39;;;;;;;;;;;21.50;99.90;;;;;;5018116;28;19921;-64
2022/02/22 11:02:07;;;;;;;;;;;21.50;99.90;;;;;;5032714;28;19932;-62
2022/02/22 11:04:35;;;;;;;;;;;21.50;99.90;;;;;;5023394;28;19929;-59
2022/02/22 11:07:04;;;;;;;;;;;21.50;99.90;;;;;;5002696;28;19925;-65
2022/02/22 11:09:37;;;;;;;;;;;21.50;99.90;;;;;;5018598;28;19983;-63
2022/02/22 11:12:07;;;;;;;;;;;21.40;99.90;;;;;;5020701;28;19955;-58
2022/02/22 11:14:35;;;;;;;;;;;21.40;99.90;;;;;;5024760;28;19932;-58
2022/02/22 11:17:16;;;;;;;;;;;21.40;99.90;;;;;;5005488;28;20419;-62
2022/02/22 11:19:45;;;;;;;;;;;21.30;99.90;;;;;;5017221;28;19929;-63
2022/02/22 11:22:23;;;;;;;;;;;21.30;99.90;;;;;;5038079;28;19925;-63
2022/02/22 11:24:52;;;;;;;;;;;21.30;99.90;;;;;;5024404;28;19929;-63
2022/02/22 11:27:28;;;;;;;;;;;21.20;99.90;;;;;;5023107;28;19929;-58
2022/02/22 11:29:55;;;;;;;;;;;21.20;99.90;;;;;;5018907;28;19929;-60
2022/02/22 11:32:38;;;;;;;;;;;21.20;99.90;;;;;;5019180;28;19921;-62
2022/02/22 11:35:10;;;;;;;;;;;21.10;99.90;;;;;;5004317;28;19929;-61
2022/02/22 11:37:38;;;;;;;;;;;21.10;99.90;;;;;;5022338;28;19925;-64
2022/02/22 11:40:06;;;;;;;;;;;21.00;99.90;;;;;;5023213;28;20316;-61
2022/02/22 11:42:33;;;;;;;;;;;21.00;99.90;;;;;;5021624;28;19932;-63
2022/02/22 11:45:01;;;;;;;;;;;21.00;99.90;;;;;;5022141;28;19944;-60
2022/02/22 11:47:30;;;;;;;;;;;21.00;99.90;;;;;;5036004;28;19936;-64
2022/02/22 11:49:58;;;;;;;;;;;20.90;99.90;;;;;;5019543;28;19925;-59
2022/02/22 11:52:38;;;;;;;;;;;20.90;99.90;;;;;;5022273;28;19991;-62
2022/02/22 11:55:07;;;;;;;;;;;20.80;99.90;;;;;;5003533;28;20296;-62
2022/02/22 11:57:44;;;;;;;;;;;20.80;99.90;;;;;;5036775;28;19929;-66
2022/02/22 12:00:13;;;;;;;;;;;20.80;99.90;;;;;;5025104;28;19925;-62
2022/02/22 12:02:44;;;;;;;;;;;20.80;99.90;;;;;;5022840;28;19925;-62
2022/02/22 12:05:22;;;;;;;;;;;20.80;99.90;;;;;;5019928;28;19939;-61
2022/02/22 12:08:03;;;;;;;;;;;21.00;99.90;;;;;;5018288;28;20423;-64
2022/02/22 12:10:31;;;;;;;;;;;21.00;99.90;;;;;;5019941;28;19932;-65
2022/02/22 12:13:06;;;;;;;;;;;21.10;99.90;;;;;;5018711;28;19925;-62
2022/02/22 12:15:34;;;;;;;;;;;21.20;99.90;;;;;;4997028;28;19928;-62
2022/02/22 12:18:01;;;;;;;;;;;21.20;99.90;;;;;;5032343;28;19936;-65
2022/02/22 12:20:30;;;;;;;;;;;21.30;99.90;;;;;;5022469;28;20038;-62
2022/02/22 12:22:57;;;;;;;;;;;21.30;99.90;;;;;;5018476;28;19925;-61
2022/02/22 12:25:25;;;;;;;;;;;21.40;99.90;;;;;;5019579;28;20588;-61
2022/02/22 12:28:00;;;;;;;;;;;21.40;99.90;;;;;;5016229;28;19929;-62
2022/02/22 12:30:35;;;;;;;;;;;21.40;99.90;;;;;;5020589;28;19933;-62
2022/02/22 12:33:03;;;;;;;;;;;21.40;99.90;;;;;;5002390;28;19926;-65
2022/02/22 12:35:34;;;;;;;;;;;21.40;99.90;;;;;;5036920;28;19925;-59
2022/02/22 12:38:25;;;;;;;;;;;21.30;99.90;;;;;;5018258;28;19925;-63
2022/02/22 12:40:53;;;;;;;;;;;21.30;99.90;;;;;;5018600;28;20367;-62
2022/02/22 12:43:48;;;;;;;;;;;21.30;99.90;;;;;;5002842;28;19925;-63
2022/02/22 12:46:17;;;;;;;;;;;21.20;99.90;;;;;;5017747;28;19925;-63
2022/02/22 12:48:44;;;;;;;;;;;21.20;99.90;;;;;;5016329;28;19947;-60
2022/02/22 12:51:28;;;;;;;;;;;21.20;99.90;;;;;;5023098;28;19932;-65
2022/02/22 12:54:06;;;;;;;;;;;21.10;99.90;;;;;;5024086;28;19931;-65
2022/02/22 12:56:35;;;;;;;;;;;21.10;99.90;;;;;;5024932;28;20349;-63
2022/02/22 12:59:06;;;;;;;;;;;21.10;99.90;;;;;;5020615;28;20778;-66
2022/02/22 13:01:35;;;;;;;;;;;21.00;99.90;;;;;;5027250;28;19935;-64
2022/02/22 13:04:13;;;;;;;;;;;21.00;99.90;;;;;;5026435;28;19932;-66
2022/02/22 13:06:48;;;;;;;;;;;21.00;99.90;;;;;;4988237;28;19928;-64
2022/02/22 13:09:15;;;;;;;;;;;21.00;99.90;;;;;;5007075;28;19936;-65
2022/02/22 13:11:43;;;;;;;;;;;20.90;99.90;;;;;;5023119;28;19936;-66
2022/02/22 13:14:11;;;;;;;;;;;20.90;99.90;;;;;;5020556;28;19921;-61
2022/02/22 13:16:48;;;;;;;;;;;20.90;99.90;;;;;;5005697;28;19940;-62
2022/02/22 13:19:26;;;;;;;;;;;20.90;99.90;;;;;;5018497;28;19928;-63
2022/02/22 13:21:53;;;;;;;;;;;21.00;99.90;;;;;;5025337;28;19925;-63
2022/02/22 13:24:20;;;;;;;;;;;21.00;99.90;;;;;;5006878;28;20467;-63
2022/02/22 13:27:07;;;;;;;;;;;21.00;99.90;;;;;;5024695;28;20189;-63
2022/02/22 13:29:53;;;;;;;;;;;21.10;99.90;;;;;;5021184;28;19925;-63
2022/02/22 13:32:39;;;;;;;;;;;21.20;99.90;;;;;;5010658;28;19933;-63
2022/02/22 13:35:23;;;;;;;;;;;21.20;99.90;;;;;;5025650;28;19929;-65
2022/02/22 13:38:18;;;;;;;;;;;21.30;99.90;;;;;;5019829;28;19941;-64
2022/02/22 13:40:46;;;;;;;;;;;21.40;99.90;;;;;;5024031;28;20606;-64
2022/02/22 13:43:16;;;;;;;;;;;21.30;99.90;;;;;;5027209;28;19931;-66
2022/02/22 13:45:43;;;;;;;;;;;21.40;99.90;;;;;;5018362;28;19921;-62
2022/02/22 13:48:12;;;;;;;;;;;21.40;99.90;;;;;;5020143;28;20452;-63
2022/02/22 13:50:40;;;;;;;;;;;21.50;99.90;;;;;;5024922;28;19936;-62
2022/02/22 13:53:11;;;;;;;;;;;21.50;99.90;;;;;;5003693;28;19921;-67
2022/02/22 13:55:52;;;;;;;;;;;21.50;99.90;;;;;;5036746;28;20480;-60
2022/02/22 13:58:21;;;;;;;;;;;21.50;99.90;;;;;;5017411;28;20486;-64
2022/02/22 14:00:55;;;;;;;;;;;21.50;99.90;;;;;;5018554;28;19935;-61
2022/02/22 14:03:23;;;;;;;;;;;21.50;99.90;;;;;;4988098;28;20652;-62
2022/02/22 14:05:50;;;;;;;;;;;21.40;99.90;;;;;;5017739;28;20455;-64
2022/02/22 14:08:17;;;;;;;;;;;21.40;99.90;;;;;;5015481;28;19936;-62
2022/02/22 14:10:46;;;;;;;;;;;21.40;99.90;;;;;;5017362;28;19937;-63
2022/02/22 14:13:15;;;;;;;;;;;21.50;99.90;;;;;;5014219;28;19932;-59
2022/02/22 14:15:53;;;;;;;;;;;21.50;99.90;;;;;;4996784;28;19932;-67
2022/02/22 14:18:20;;;;;;;;;;;21.50;99.90;;;;;;5014781;28;20392;-64
2022/02/22 14:20:48;;;;;;;;;;;21.50;99.90;;;;;;4995918;28;19931;-63
2022/02/22 14:23:16;;;;;;;;;;;21.50;99.90;;;;;;5019770;28;19924;-68
2022/02/22 14:25:44;;;;;;;;;;;21.40;99.90;;;;;;5016967;28;19933;-63
2022/02/22 14:28:12;;;;;;;;;;;21.40;99.90;;;;;;5013484;28;19925;-64